Airfield :
LOGIN :

Register | Disclaimer

   EN    FR    IT 

 










Legend :    VFR   Marginal VFR   IFR   Intensive IFR   Very Intensive IFR
Visi :
Ceiling :
>= 8 km
>= 3000ft
5 to 8 km
1000 to 3000 ft
1500m to 5 km
500 to 1000 ft
800 to 1500m
200 to 500 ft
< 800m
< 200 ft
Symbols :   Thunderstorms  Fog  Heavy snow  Heavy precipitations  Wind > 20 kt
SIGMETs :     Misc.  Thunderstorms  Icing  Turbulence  Mountain Waves  Volcanic Ashes







- Airport Elevation : 325 ft
- IATA code : BES
- Download approach charts


LFRB - Brest

CURRENT METAR :
  • 260030Z AUTO 05006KT CAVOK 03/01 Q1035 NOSIG

EXPIRED METARs :
  • 260000Z AUTO 03006KT CAVOK 02/00 Q1035 NOSIG
  • 252330Z AUTO 05004KT CAVOK 04/01 Q1035 NOSIG
  • 252300Z AUTO 06004KT CAVOK 03/01 Q1035 NOSIG
  • 252230Z AUTO 05007KT CAVOK 04/01 Q1035 NOSIG
  • 252200Z AUTO 05008KT CAVOK 04/01 Q1035 NOSIG

TAF TAF LFRB
Valid from the 26 at 00:00 until the 27 at 06:00 UTC


252300Z 2600/2706 03010KT CAVOK
PROB30
TEMPO 2603/2608 3000 MIFG
TEMPO 2611/2618 SCT025
ATIS : +33 2 98 32 02 71
No reported NOTAMs for that airfield.



MET'MAP, your aeronautical weather chart ! - Copyright ORBIFLY December 2007 - Disclaimer

ORBIFLY MET'MAP TEAM :

Programming & Development : Alexandra Zaïnal
Concept & Development : Baudouin d'Aumeries
Co-Development & Prog : Marc-Olivier Méhu
Technical & hardware support : Manuel Goepfert

Contact : metmap@orbifly.com




SOURCES & CREDITS :

   NOAA